Time;durP1;ratioP1;P1;durP2;ratioP2;P2;SDS_P1;SDS_P2;PMS_P1;PMS_P2;Temp;Humidity;BMP_temperature;BMP_pressure;BME280_temperature;BME280_humidity;BME280_pressure;Samples;Min_cycle;Max_cycle;Signal;HPM_P1;HPM_P2
2023/06/15 00:00:56;;;;;;;14.75;11.00;;;15.70;99.90;;;;;;2102791;28;20028;-73
2023/06/15 00:01:58;;;;;;;14.45;11.50;;;15.80;99.90;;;;;;2101353;28;20118;-73
2023/06/15 00:02:58;;;;;;;14.93;11.40;;;15.70;99.90;;;;;;2100537;28;20028;-72
2023/06/15 00:04:03;;;;;;;13.88;11.18;;;15.80;99.90;;;;;;2098403;28;20020;-72
2023/06/15 00:05:04;;;;;;;14.68;11.23;;;15.80;99.90;;;;;;2098354;28;20134;-72
2023/06/15 00:06:04;;;;;;;15.82;11.40;;;15.80;99.90;;;;;;2098479;28;20024;-73
2023/06/15 00:07:05;;;;;;;14.55;11.52;;;15.80;99.90;;;;;;2102368;28;20036;-73
2023/06/15 00:08:06;;;;;;;15.40;11.52;;;15.80;99.90;;;;;;2100409;28;20055;-72
2023/06/15 00:09:06;;;;;;;16.63;11.60;;;15.80;99.90;;;;;;2087155;28;20482;-73
2023/06/15 00:10:08;;;;;;;14.80;11.15;;;15.80;99.90;;;;;;2099990;28;20027;-72
2023/06/15 00:11:09;;;;;;;14.05;11.20;;;15.80;99.90;;;;;;2098826;28;20055;-73
2023/06/15 00:12:09;;;;;;;15.02;11.05;;;15.80;99.90;;;;;;2102827;28;20129;-72
2023/06/15 00:13:10;;;;;;;14.00;10.57;;;15.80;99.90;;;;;;2101564;28;20383;-72
2023/06/15 00:14:10;;;;;;;14.35;11.60;;;15.80;99.90;;;;;;2098314;28;20058;-72
2023/06/15 00:15:11;;;;;;;15.63;11.40;;;15.80;99.90;;;;;;2097531;28;20119;-73
2023/06/15 00:16:14;;;;;;;15.20;11.13;;;15.80;99.90;;;;;;2097824;28;20021;-72
2023/06/15 00:17:14;;;;;;;14.00;11.20;;;15.80;99.90;;;;;;2095043;28;20029;-72
2023/06/15 00:18:15;;;;;;;14.27;10.70;;;15.80;99.90;;;;;;2102854;28;20040;-73
2023/06/15 00:19:16;;;;;;;17.20;11.60;;;15.80;99.90;;;;;;2092934;28;20032;-73
2023/06/15 00:20:17;;;;;;;15.73;11.88;;;15.80;99.90;;;;;;2101452;28;20024;-73
2023/06/15 00:21:18;;;;;;;15.20;11.70;;;15.80;99.90;;;;;;2101821;28;20076;-74
2023/06/15 00:22:19;;;;;;;13.65;11.32;;;15.80;99.90;;;;;;2102118;28;20484;-74
2023/06/15 00:23:23;;;;;;;16.20;11.48;;;15.80;99.90;;;;;;2101731;28;20080;-74
2023/06/15 00:24:24;;;;;;;13.23;10.55;;;15.80;99.90;;;;;;2107777;28;20081;-74
2023/06/15 00:25:24;;;;;;;13.75;10.80;;;15.80;99.90;;;;;;2102639;28;20027;-74
2023/06/15 00:26:26;;;;;;;15.70;11.25;;;15.80;99.90;;;;;;2099879;28;20038;-74
2023/06/15 00:27:26;;;;;;;18.45;11.32;;;15.80;99.90;;;;;;2102974;28;20213;-74
2023/06/15 00:28:27;;;;;;;14.15;11.15;;;15.80;99.90;;;;;;2093799;28;20538;-74
2023/06/15 00:29:28;;;;;;;12.93;10.88;;;15.80;99.90;;;;;;2101968;28;20031;-74
2023/06/15 00:30:28;;;;;;;13.85;11.45;;;15.80;99.90;;;;;;2102596;28;20489;-73
2023/06/15 00:31:29;;;;;;;14.27;10.93;;;15.80;99.90;;;;;;2101710;28;20518;-74
2023/06/15 00:32:30;;;;;;;14.07;11.13;;;15.80;99.90;;;;;;2101983;28;20504;-73
2023/06/15 00:33:30;;;;;;;15.10;13.50;;;15.80;99.90;;;;;;2102245;28;20043;-73
2023/06/15 00:34:31;;;;;;;15.85;12.60;;;15.80;99.90;;;;;;2099508;28;20519;-74
2023/06/15 00:35:31;;;;;;;15.13;12.18;;;15.80;99.90;;;;;;2104694;28;20302;-73
2023/06/15 00:36:32;;;;;;;14.85;11.35;;;15.80;99.90;;;;;;2102333;28;20049;-74
2023/06/15 00:37:32;;;;;;;12.40;11.02;;;15.80;99.90;;;;;;2102706;28;20544;-74
2023/06/15 00:38:33;;;;;;;13.85;10.93;;;15.80;99.90;;;;;;2093814;28;20032;-74
2023/06/15 00:39:34;;;;;;;13.18;10.82;;;15.80;99.90;;;;;;2100732;28;20120;-73
2023/06/15 00:40:38;;;;;;;13.75;11.13;;;15.80;99.90;;;;;;2101986;28;20252;-72
2023/06/15 00:41:42;;;;;;;12.70;10.80;;;15.80;99.90;;;;;;2090377;28;20048;-74
2023/06/15 00:42:44;;;;;;;12.88;10.32;;;15.80;99.90;;;;;;2093285;28;20024;-73
2023/06/15 00:43:45;;;;;;;13.02;10.35;;;15.80;99.90;;;;;;2102831;28;20395;-73
2023/06/15 00:44:46;;;;;;;11.82;10.40;;;15.80;99.90;;;;;;2090641;28;20264;-73
2023/06/15 00:45:46;;;;;;;11.15;9.80;;;15.80;99.90;;;;;;2093662;28;20547;-73
2023/06/15 00:46:48;;;;;;;11.05;9.40;;;15.80;99.90;;;;;;2102740;28;20070;-73
2023/06/15 00:47:49;;;;;;;11.13;9.93;;;15.70;99.90;;;;;;2093481;28;20070;-73
2023/06/15 00:48:50;;;;;;;12.13;9.80;;;15.70;99.90;;;;;;2094148;28;20479;-72
2023/06/15 00:49:51;;;;;;;11.57;9.50;;;15.70;99.90;;;;;;2093284;28;20059;-73
2023/06/15 00:50:52;;;;;;;12.32;9.88;;;15.70;99.90;;;;;;2093493;28;20020;-72
2023/06/15 00:51:53;;;;;;;13.32;9.63;;;15.70;99.90;;;;;;2101722;28;20490;-73
2023/06/15 00:52:53;;;;;;;10.23;9.15;;;15.70;99.90;;;;;;2090557;28;20063;-72
2023/06/15 00:53:54;;;;;;;10.63;9.45;;;15.70;99.90;;;;;;2097804;28;20416;-72
2023/06/15 00:54:55;;;;;;;12.15;10.30;;;15.70;99.90;;;;;;2096158;28;20017;-72
2023/06/15 00:55:56;;;;;;;11.20;9.88;;;15.60;99.90;;;;;;2104109;28;20499;-72
2023/06/15 00:56:57;;;;;;;11.40;10.07;;;15.60;99.90;;;;;;2095902;28;20028;-73
2023/06/15 00:57:58;;;;;;;12.43;9.95;;;15.60;99.90;;;;;;2103498;28;20027;-74
2023/06/15 00:59:01;;;;;;;11.77;10.45;;;15.60;99.90;;;;;;2097561;28;20426;-73
2023/06/15 01:00:09;;;;;;;11.52;10.23;;;15.60;99.90;;;;;;2096387;28;20032;-72
2023/06/15 01:01:10;;;;;;;11.90;10.18;;;15.60;99.90;;;;;;2102728;28;20031;-73
2023/06/15 01:02:12;;;;;;;12.32;10.60;;;15.60;99.90;;;;;;2101779;28;20712;-73
2023/06/15 01:03:15;;;;;;;12.40;10.38;;;15.60;99.90;;;;;;2099675;28;20040;-72
2023/06/15 01:04:16;;;;;;;12.27;10.73;;;15.60;99.90;;;;;;2099046;28;20036;-72
2023/06/15 01:05:19;;;;;;;11.88;10.60;;;15.60;99.90;;;;;;2098962;28;20028;-72
2023/06/15 01:06:19;;;;;;;12.32;10.57;;;15.60;99.90;;;;;;2100678;28;20024;-73
2023/06/15 01:07:27;;;;;;;12.15;10.40;;;15.60;99.90;;;;;;2100171;28;20588;-72
2023/06/15 01:08:28;;;;;;;11.15;10.02;;;15.60;99.90;;;;;;2099310;28;20043;-73
2023/06/15 01:09:30;;;;;;;11.63;10.43;;;15.60;99.90;;;;;;2102417;28;20174;-73
2023/06/15 01:10:32;;;;;;;11.35;10.15;;;15.70;99.90;;;;;;2094299;28;20503;-73
2023/06/15 01:11:34;;;;;;;13.00;10.15;;;15.60;99.90;;;;;;2090676;28;20503;-73
2023/06/15 01:12:40;;;;;;;12.40;11.10;;;15.60;99.90;;;;;;2097634;28;20032;-73
2023/06/15 01:13:44;;;;;;;12.65;10.80;;;15.60;99.90;;;;;;2101892;28;20132;-73
2023/06/15 01:14:45;;;;;;;12.05;10.75;;;15.60;99.90;;;;;;2100383;28;20530;-73
2023/06/15 01:15:49;;;;;;;13.27;10.73;;;15.60;99.90;;;;;;2099566;28;20031;-71
2023/06/15 01:16:55;;;;;;;15.77;11.02;;;15.60;99.90;;;;;;2099477;28;20434;-71
2023/06/15 01:17:59;;;;;;;13.75;10.65;;;15.60;99.90;;;;;;2099345;28;20067;-72
2023/06/15 01:19:01;;;;;;;14.52;10.75;;;15.60;99.90;;;;;;2099095;28;20512;-73
2023/06/15 01:20:05;;;;;;;12.82;10.27;;;15.60;99.90;;;;;;2096215;28;20052;-73
2023/06/15 01:21:06;;;;;;;11.88;10.57;;;15.60;99.90;;;;;;2100844;28;20028;-72
2023/06/15 01:22:24;;;;;;;12.98;11.00;;;15.50;99.90;;;;;;2097132;28;20114;-73
2023/06/15 01:23:40;;;;;;;12.70;10.38;;;15.60;99.90;;;;;;2098245;28;20719;-70
2023/06/15 01:24:49;;;;;;;14.48;10.18;;;15.60;99.90;;;;;;2102023;28;20040;-77
2023/06/15 01:26:06;;;;;;;14.70;10.85;;;15.60;99.90;;;;;;2098427;28;21130;-70
2023/06/15 01:27:09;;;;;;;13.10;9.93;;;15.60;99.90;;;;;;2100702;28;20035;-77
2023/06/15 01:28:11;;;;;;;14.30;10.20;;;15.60;99.90;;;;;;2098805;28;20556;-77
2023/06/15 01:29:15;;;;;;;13.18;10.25;;;15.60;99.90;;;;;;2097731;28;20033;-77
2023/06/15 01:30:16;;;;;;;14.15;11.10;;;15.60;99.90;;;;;;2098414;28;20025;-76
2023/06/15 01:31:17;;;;;;;13.73;11.00;;;15.60;99.90;;;;;;2102215;28;20468;-77
2023/06/15 01:32:19;;;;;;;13.73;10.60;;;15.60;99.90;;;;;;2101065;28;20660;-77
2023/06/15 01:33:22;;;;;;;15.55;10.88;;;15.50;99.90;;;;;;2085542;28;20032;-77
2023/06/15 01:34:23;;;;;;;14.32;10.95;;;15.60;99.90;;;;;;2100555;28;20518;-76
2023/06/15 01:35:23;;;;;;;13.18;11.05;;;15.50;99.90;;;;;;2100292;28;20062;-76
2023/06/15 01:36:24;;;;;;;13.73;10.68;;;15.50;99.90;;;;;;2100400;28;20028;-76
2023/06/15 01:37:24;;;;;;;13.82;10.70;;;15.50;99.90;;;;;;2101589;28;20273;-76
2023/06/15 01:38:29;;;;;;;13.90;11.05;;;15.50;99.90;;;;;;2099372;28;20494;-76
2023/06/15 01:39:30;;;;;;;12.60;10.23;;;15.50;99.90;;;;;;2098955;28;20128;-77
2023/06/15 01:40:36;;;;;;;13.52;10.23;;;15.60;99.90;;;;;;2098701;28;20254;-76
2023/06/15 01:41:38;;;;;;;12.35;10.20;;;15.50;99.90;;;;;;2098277;28;20047;-76
2023/06/15 01:42:40;;;;;;;12.00;9.95;;;15.50;99.90;;;;;;2098144;28;20559;-76
2023/06/15 01:43:41;;;;;;;13.63;10.82;;;15.50;99.90;;;;;;2101905;28;20040;-76
2023/06/15 01:44:42;;;;;;;15.88;10.93;;;15.50;99.90;;;;;;2092602;28;20445;-76
2023/06/15 01:45:45;;;;;;;13.88;10.75;;;15.50;99.90;;;;;;2100793;28;20034;-76
2023/06/15 01:46:47;;;;;;;12.52;10.70;;;15.50;99.90;;;;;;2099922;28;20020;-76
2023/06/15 01:47:49;;;;;;;12.52;10.52;;;15.50;99.90;;;;;;2100175;28;20436;-78
2023/06/15 01:48:50;;;;;;;13.40;10.25;;;15.50;99.90;;;;;;2100478;28;20135;-77
2023/06/15 01:49:51;;;;;;;14.35;10.13;;;15.50;99.90;;;;;;2102264;28;20046;-77
2023/06/15 01:50:52;;;;;;;15.82;10.93;;;15.50;99.90;;;;;;2094510;28;20042;-77
2023/06/15 01:51:52;;;;;;;13.02;10.43;;;15.50;99.90;;;;;;2096749;28;20024;-76
2023/06/15 01:52:53;;;;;;;11.80;10.60;;;15.50;99.90;;;;;;2099458;28;20177;-76
2023/06/15 01:53:53;;;;;;;13.05;10.65;;;15.50;99.90;;;;;;2101018;28;20156;-77
2023/06/15 01:54:54;;;;;;;11.63;10.05;;;15.50;99.90;;;;;;2095621;28;20491;-76
2023/06/15 01:55:55;;;;;;;12.02;10.45;;;15.40;99.90;;;;;;2094014;28;20269;-77
2023/06/15 01:56:56;;;;;;;11.85;10.20;;;15.50;99.90;;;;;;2100935;28;20107;-77
2023/06/15 01:57:57;;;;;;;12.15;10.13;;;15.40;99.90;;;;;;2100001;28;20028;-76
2023/06/15 01:58:58;;;;;;;11.60;10.20;;;15.40;99.90;;;;;;2101222;28;20053;-77
2023/06/15 01:59:59;;;;;;;12.30;11.00;;;15.40;99.90;;;;;;2096623;28;20058;-77
2023/06/15 02:00:59;;;;;;;12.30;10.68;;;15.40;99.90;;;;;;2094589;28;20356;-77
2023/06/15 02:02:00;;;;;;;11.75;10.55;;;15.40;99.90;;;;;;2094473;28;20032;-76
2023/06/15 02:03:01;;;;;;;12.20;10.90;;;15.40;99.90;;;;;;2094408;28;20028;-76
2023/06/15 02:04:02;;;;;;;13.00;11.05;;;15.40;99.90;;;;;;2093568;28;20471;-76
2023/06/15 02:05:04;;;;;;;13.85;11.20;;;15.40;99.90;;;;;;2091244;28;20392;-76
2023/06/15 02:06:04;;;;;;;14.27;10.52;;;15.40;99.90;;;;;;2100404;28;20039;-76
2023/06/15 02:07:05;;;;;;;12.50;10.95;;;15.40;99.90;;;;;;2100822;28;20504;-76
2023/06/15 02:08:07;;;;;;;12.35;11.02;;;15.40;99.90;;;;;;2093440;28;20035;-76
2023/06/15 02:09:08;;;;;;;12.85;11.07;;;15.30;99.90;;;;;;2096600;28;20032;-76
2023/06/15 02:10:10;;;;;;;13.07;10.75;;;15.30;99.90;;;;;;2103686;28;20031;-75
2023/06/15 02:11:11;;;;;;;12.10;10.80;;;15.30;99.90;;;;;;2051738;28;1093474;-76
2023/06/15 02:12:11;;;;;;;12.35;10.90;;;15.30;99.90;;;;;;2095150;28;20499;-76
2023/06/15 02:13:12;;;;;;;12.05;10.73;;;15.30;99.90;;;;;;2100885;28;20032;-76
2023/06/15 02:14:17;;;;;;;13.82;11.23;;;15.30;99.90;;;;;;2097377;28;20024;-76
2023/06/15 02:15:18;;;;;;;12.93;11.27;;;15.30;99.90;;;;;;2085276;28;22623;-77
2023/06/15 02:16:19;;;;;;;14.07;11.68;;;15.30;99.90;;;;;;2094212;28;20048;-76
2023/06/15 02:17:20;;;;;;;12.57;11.13;;;15.30;99.90;;;;;;2101355;28;20027;-77
2023/06/15 02:18:21;;;;;;;13.15;11.43;;;15.30;99.90;;;;;;2103698;28;20019;-76
2023/06/15 02:19:22;;;;;;;13.98;11.45;;;15.30;99.90;;;;;;2101548;28;20479;-77
2023/06/15 02:20:23;;;;;;;13.07;11.18;;;15.30;99.90;;;;;;2098446;28;20023;-76
2023/06/15 02:21:23;;;;;;;13.75;10.93;;;15.30;99.90;;;;;;2098304;28;20033;-76
2023/06/15 02:22:24;;;;;;;12.80;11.25;;;15.30;99.90;;;;;;2099236;28;20040;-76
2023/06/15 02:23:25;;;;;;;14.15;10.95;;;15.20;99.90;;;;;;2102285;28;20063;-77
2023/06/15 02:24:26;;;;;;;13.98;11.77;;;15.20;99.90;;;;;;2097190;28;20032;-77
2023/06/15 02:25:29;;;;;;;13.73;11.38;;;15.20;99.90;;;;;;2092526;28;20582;-76
2023/06/15 02:26:30;;;;;;;15.00;10.98;;;15.20;99.90;;;;;;2101146;28;20066;-77
2023/06/15 02:27:33;;;;;;;15.07;11.32;;;15.20;99.90;;;;;;2101207;28;20024;-75
2023/06/15 02:28:35;;;;;;;13.40;11.32;;;15.20;99.90;;;;;;2102540;28;20533;-76
2023/06/15 02:29:37;;;;;;;14.85;11.93;;;15.20;99.90;;;;;;2103336;28;20030;-77
2023/06/15 02:30:41;;;;;;;14.38;11.73;;;15.20;99.90;;;;;;2089803;28;20040;-76
2023/06/15 02:31:41;;;;;;;16.15;11.32;;;15.20;99.90;;;;;;2095048;28;20039;-76
2023/06/15 02:32:42;;;;;;;13.60;11.70;;;15.20;99.90;;;;;;2100919;28;20584;-75
2023/06/15 02:33:44;;;;;;;14.35;11.50;;;15.20;99.90;;;;;;2094680;28;20154;-76
2023/06/15 02:34:45;;;;;;;14.98;11.65;;;15.10;99.90;;;;;;2092595;28;20075;-75
2023/06/15 02:35:45;;;;;;;14.55;11.68;;;15.10;99.90;;;;;;2100085;28;20118;-75
2023/06/15 02:36:48;;;;;;;16.60;11.88;;;15.10;99.90;;;;;;2093559;28;20047;-75
2023/06/15 02:37:49;;;;;;;14.73;11.60;;;15.10;99.90;;;;;;2086881;28;20472;-76
2023/06/15 02:38:49;;;;;;;14.88;11.45;;;15.10;99.90;;;;;;2092249;28;20157;-76
2023/06/15 02:39:52;;;;;;;13.88;11.45;;;15.10;99.90;;;;;;2095812;28;20055;-76
2023/06/15 02:40:53;;;;;;;13.23;10.93;;;15.10;99.90;;;;;;2091889;28;20028;-76
2023/06/15 02:41:56;;;;;;;13.77;11.10;;;15.10;99.90;;;;;;2100391;28;20111;-77
2023/06/15 02:42:57;;;;;;;14.10;11.02;;;15.10;99.90;;;;;;2098468;28;20257;-77
2023/06/15 02:43:57;;;;;;;12.25;10.85;;;15.10;99.90;;;;;;2090069;28;20033;-77
2023/06/15 02:44:58;;;;;;;13.30;11.02;;;15.10;99.90;;;;;;2089786;28;20024;-75
2023/06/15 02:46:00;;;;;;;12.98;11.18;;;15.10;99.90;;;;;;2089989;28;20099;-73
2023/06/15 02:47:00;;;;;;;14.45;11.73;;;15.10;99.90;;;;;;2094199;28;20053;-75
2023/06/15 02:48:01;;;;;;;15.93;11.40;;;15.10;99.90;;;;;;2096929;28;20074;-77
2023/06/15 02:49:03;;;;;;;15.38;12.45;;;15.00;99.90;;;;;;2090524;28;20446;-77
2023/06/15 02:50:05;;;;;;;13.82;11.65;;;15.10;99.90;;;;;;2106204;28;20090;-77
2023/06/15 02:51:10;;;;;;;13.95;11.57;;;15.00;99.90;;;;;;2093067;28;20028;-75
2023/06/15 02:52:10;;;;;;;13.88;11.90;;;15.00;99.90;;;;;;2084346;28;20086;-76
2023/06/15 02:53:12;;;;;;;14.65;12.13;;;15.00;99.90;;;;;;2094759;28;20024;-75
2023/06/15 02:54:12;;;;;;;14.23;11.88;;;15.00;99.90;;;;;;2098278;28;20024;-76
2023/06/15 02:55:13;;;;;;;12.73;11.38;;;15.00;99.90;;;;;;2096820;28;20245;-75
2023/06/15 02:56:19;;;;;;;13.32;11.52;;;14.90;99.90;;;;;;2097920;28;20475;-75
2023/06/15 02:57:21;;;;;;;14.35;11.57;;;15.00;99.90;;;;;;2088255;28;20025;-76
2023/06/15 02:58:37;;;;;;;15.50;12.00;;;14.90;99.90;;;;;;2090750;28;20041;-76
2023/06/15 02:59:44;;;;;;;14.68;11.90;;;14.90;99.90;;;;;;2089560;28;20127;-76
2023/06/15 03:00:50;;;;;;;12.73;11.10;;;14.90;99.90;;;;;;2085383;28;20119;-76
2023/06/15 03:01:57;;;;;;;14.00;11.45;;;14.90;99.90;;;;;;2097597;28;20052;-76
2023/06/15 03:02:58;;;;;;;13.77;11.50;;;14.90;99.90;;;;;;2095889;28;20024;-75
2023/06/15 03:04:09;;;;;;;13.85;11.38;;;14.90;99.90;;;;;;2084354;28;20052;-76
2023/06/15 03:05:11;;;;;;;13.80;11.10;;;14.90;99.90;;;;;;2083759;28;20124;-76
2023/06/15 03:06:21;;;;;;;15.32;11.45;;;14.90;99.90;;;;;;2092203;28;20039;-76
2023/06/15 03:07:22;;;;;;;15.68;11.77;;;14.80;99.90;;;;;;2095575;28;20050;-76
2023/06/15 03:08:42;;;;;;;12.52;10.65;;;14.80;99.90;;;;;;2097493;28;20119;-76
2023/06/15 03:09:56;;;;;;;13.73;10.95;;;14.80;99.90;;;;;;2093227;28;20475;-76
2023/06/15 03:10:57;;;;;;;13.60;11.10;;;14.70;99.90;;;;;;2089858;28;20025;-76
2023/06/15 03:11:58;;;;;;;14.13;11.30;;;14.70;99.90;;;;;;2092584;28;20616;-77
2023/06/15 03:13:04;;;;;;;12.80;10.82;;;14.70;99.90;;;;;;2076876;28;20040;-76
2023/06/15 03:14:04;;;;;;;12.93;11.40;;;14.70;99.90;;;;;;2091799;28;20017;-77
2023/06/15 03:15:10;;;;;;;13.13;11.23;;;14.70;99.90;;;;;;2095940;28;20020;-76
2023/06/15 03:16:16;;;;;;;13.32;11.48;;;14.70;99.90;;;;;;2093541;28;20031;-76
2023/06/15 03:17:19;;;;;;;14.30;11.60;;;14.70;99.90;;;;;;2100594;28;20422;-77
2023/06/15 03:18:20;;;;;;;13.77;11.57;;;14.70;99.90;;;;;;2094506;28;20579;-76
2023/06/15 03:19:21;;;;;;;13.32;10.98;;;14.70;99.90;;;;;;2094766;28;20415;-76
2023/06/15 03:20:22;;;;;;;14.68;11.32;;;14.70;99.90;;;;;;2098309;28;20590;-76
2023/06/15 03:21:25;;;;;;;12.45;11.15;;;14.70;99.90;;;;;;2094801;28;20062;-76
2023/06/15 03:22:28;;;;;;;13.07;11.50;;;14.70;99.90;;;;;;2097887;28;20025;-76
2023/06/15 03:23:28;;;;;;;13.05;11.25;;;14.70;99.90;;;;;;2097572;28;20541;-77
2023/06/15 03:24:30;;;;;;;12.50;11.20;;;14.70;99.90;;;;;;2083038;28;20037;-77
2023/06/15 03:25:31;;;;;;;12.60;11.30;;;14.70;99.90;;;;;;2095401;28;20047;-77
2023/06/15 03:26:33;;;;;;;12.52;10.93;;;14.60;99.90;;;;;;2095629;28;20035;-77
2023/06/15 03:27:34;;;;;;;13.45;11.25;;;14.60;99.90;;;;;;2096785;28;20035;-77
2023/06/15 03:28:39;;;;;;;12.55;11.15;;;14.60;99.90;;;;;;2095286;28;20032;-76
2023/06/15 03:29:49;;;;;;;12.07;10.82;;;14.60;99.90;;;;;;2095354;28;20039;-76
2023/06/15 03:30:53;;;;;;;14.00;10.93;;;14.60;99.90;;;;;;2099084;28;20028;-77
2023/06/15 03:31:53;;;;;;;12.38;10.68;;;14.60;99.90;;;;;;2099240;28;20814;-76
2023/06/15 03:32:54;;;;;;;12.00;10.73;;;14.60;99.90;;;;;;2097838;28;20041;-76
2023/06/15 03:33:56;;;;;;;12.82;11.18;;;14.50;99.90;;;;;;2098025;28;20020;-76
2023/06/15 03:34:57;;;;;;;13.40;11.50;;;14.50;99.90;;;;;;2090302;28;20162;-75
2023/06/15 03:36:01;;;;;;;12.00;10.73;;;14.50;99.90;;;;;;2084872;28;20068;-76
2023/06/15 03:37:03;;;;;;;12.02;10.80;;;14.50;99.90;;;;;;2083435;28;20025;-76
2023/06/15 03:38:05;;;;;;;11.75;10.55;;;14.50;99.90;;;;;;2085334;28;20013;-76
2023/06/15 03:39:07;;;;;;;13.32;10.90;;;14.50;99.90;;;;;;2091568;28;20024;-74
2023/06/15 03:40:09;;;;;;;12.23;10.93;;;14.50;99.90;;;;;;2083943;28;20041;-76
2023/06/15 03:41:10;;;;;;;12.35;10.68;;;14.50;99.90;;;;;;2084054;28;20027;-76
2023/06/15 03:42:11;;;;;;;14.15;11.00;;;14.50;99.90;;;;;;2094444;28;20499;-76
2023/06/15 03:43:13;;;;;;;12.38;10.70;;;14.50;99.90;;;;;;2089506;28;20396;-76
2023/06/15 03:44:15;;;;;;;12.38;10.73;;;14.50;99.90;;;;;;2094211;28;20549;-76
2023/06/15 03:45:17;;;;;;;11.40;10.23;;;14.50;99.90;;;;;;2090550;28;20119;-76
2023/06/15 03:46:18;;;;;;;12.93;10.85;;;14.60;99.90;;;;;;2092946;28;20511;-76
2023/06/15 03:47:19;;;;;;;12.57;11.00;;;14.60;99.90;;;;;;2091897;28;20119;-76
2023/06/15 03:48:20;;;;;;;12.98;10.52;;;14.60;99.90;;;;;;2099941;28;20100;-76
2023/06/15 03:49:21;;;;;;;12.05;10.63;;;14.60;99.90;;;;;;2092891;28;20077;-76
2023/06/15 03:50:22;;;;;;;12.02;10.73;;;14.60;99.90;;;;;;2103039;28;20041;-76
2023/06/15 03:51:23;;;;;;;13.48;12.02;;;14.60;99.90;;;;;;2092019;28;20214;-75
2023/06/15 03:52:25;;;;;;;12.00;10.70;;;14.60;99.90;;;;;;2092738;28;20115;-76
2023/06/15 03:53:26;;;;;;;12.18;10.85;;;14.60;99.90;;;;;;2097903;28;20525;-76
2023/06/15 03:54:26;;;;;;;12.25;11.00;;;14.70;99.90;;;;;;2094114;28;20063;-76
2023/06/15 03:55:27;;;;;;;11.75;10.40;;;14.60;99.90;;;;;;2094943;28;20530;-76
2023/06/15 03:56:28;;;;;;;11.57;10.38;;;14.60;99.90;;;;;;2089354;28;20025;-74
2023/06/15 03:57:29;;;;;;;12.23;10.18;;;14.70;99.90;;;;;;2102017;28;20028;-76
2023/06/15 03:58:30;;;;;;;12.65;10.48;;;14.70;99.90;;;;;;2091638;28;20032;-75
2023/06/15 03:59:30;;;;;;;11.38;10.18;;;14.70;99.90;;;;;;2085874;28;20057;-76
2023/06/15 04:00:31;;;;;;;12.70;10.10;;;14.70;99.90;;;;;;2093529;28;20028;-76
2023/06/15 04:01:36;;;;;;;11.80;10.20;;;14.70;99.90;;;;;;2089024;28;20020;-76
2023/06/15 04:02:37;;;;;;;12.13;10.50;;;14.80;99.90;;;;;;2097921;28;20094;-76
2023/06/15 04:03:37;;;;;;;11.95;10.43;;;14.80;99.90;;;;;;2097076;28;20108;-74
2023/06/15 04:04:40;;;;;;;12.60;10.70;;;14.80;99.90;;;;;;2094375;28;20111;-75
2023/06/15 04:05:42;;;;;;;12.68;11.13;;;14.80;99.90;;;;;;2093485;28;20113;-76
2023/06/15 04:06:47;;;;;;;11.93;10.40;;;14.80;99.90;;;;;;2086209;28;20399;-75
2023/06/15 04:07:51;;;;;;;11.65;10.27;;;14.80;99.90;;;;;;2087914;28;20448;-75
2023/06/15 04:08:51;;;;;;;13.88;10.73;;;14.80;99.90;;;;;;2090218;28;20518;-76
2023/06/15 04:09:52;;;;;;;12.30;11.00;;;14.90;99.90;;;;;;2092152;28;20020;-76
2023/06/15 04:10:55;;;;;;;13.60;10.60;;;14.90;99.90;;;;;;2094852;28;20028;-77
2023/06/15 04:11:56;;;;;;;11.75;10.35;;;14.90;99.90;;;;;;2092788;28;20530;-77
2023/06/15 04:12:58;;;;;;;12.57;10.05;;;14.90;99.90;;;;;;2086194;28;20576;-75
2023/06/15 04:13:59;;;;;;;12.65;10.50;;;14.90;99.90;;;;;;2094193;28;20031;-76
2023/06/15 04:15:00;;;;;;;12.13;10.48;;;15.00;99.90;;;;;;2089192;28;20020;-76
2023/06/15 04:16:00;;;;;;;11.68;10.48;;;15.00;99.90;;;;;;2088313;28;20087;-76
2023/06/15 04:17:02;;;;;;;11.68;10.27;;;15.00;99.90;;;;;;2095551;28;20029;-77
2023/06/15 04:18:03;;;;;;;11.23;9.85;;;15.00;99.90;;;;;;2092980;28;20017;-77
2023/06/15 04:19:04;;;;;;;12.35;10.25;;;15.10;99.90;;;;;;2100387;28;20491;-76
2023/06/15 04:20:05;;;;;;;12.23;10.43;;;15.10;99.90;;;;;;2092705;28;20032;-76
2023/06/15 04:21:07;;;;;;;11.70;10.50;;;15.20;99.90;;;;;;2094126;28;20028;-71
2023/06/15 04:22:08;;;;;;;13.55;10.70;;;15.20;99.90;;;;;;2097468;28;20036;-79
2023/06/15 04:23:09;;;;;;;13.52;10.50;;;15.20;99.90;;;;;;2094714;28;20031;-83
2023/06/15 04:24:10;;;;;;;12.20;10.73;;;15.10;99.90;;;;;;2090311;28;20035;-85
2023/06/15 04:25:12;;;;;;;12.65;10.55;;;15.10;99.90;;;;;;2083937;28;20052;-83
2023/06/15 04:26:13;;;;;;;12.18;10.20;;;15.10;99.90;;;;;;2077953;28;20036;-84
2023/06/15 04:27:18;;;;;;;13.60;10.45;;;15.10;99.90;;;;;;2084918;28;20021;-83
2023/06/15 04:28:20;;;;;;;13.18;10.02;;;15.20;99.90;;;;;;2091192;28;20592;-81
2023/06/15 04:29:22;;;;;;;11.88;10.55;;;15.20;99.90;;;;;;2092166;28;20115;-81
2023/06/15 04:30:26;;;;;;;11.85;10.40;;;15.20;99.90;;;;;;2093015;28;20024;-81
2023/06/15 04:31:33;;;;;;;11.93;9.70;;;15.20;99.90;;;;;;2092429;28;20026;-84
2023/06/15 04:32:35;;;;;;;11.77;10.05;;;15.20;99.90;;;;;;2094325;28;20028;-84
2023/06/15 04:33:42;;;;;;;12.27;10.30;;;15.20;99.90;;;;;;2082438;28;20111;-81
2023/06/15 04:34:45;;;;;;;12.23;10.70;;;15.20;99.90;;;;;;2094986;28;20059;-82
2023/06/15 04:35:46;;;;;;;11.40;9.88;;;15.30;99.90;;;;;;2097456;28;20021;-81
2023/06/15 04:36:49;;;;;;;12.32;10.75;;;15.30;99.90;;;;;;2094289;28;20522;-84
2023/06/15 04:37:50;;;;;;;13.02;10.02;;;15.30;99.90;;;;;;2081513;28;20116;-79
2023/06/15 04:38:51;;;;;;;11.45;10.25;;;15.30;99.90;;;;;;2097301;28;20131;-83
2023/06/15 04:39:56;;;;;;;14.18;10.88;;;15.40;99.90;;;;;;2083228;28;21047;-80
2023/06/15 04:40:57;;;;;;;15.98;11.32;;;15.40;99.90;;;;;;2091710;28;20064;-83
2023/06/15 04:41:59;;;;;;;15.70;11.52;;;15.30;99.90;;;;;;2095062;28;20040;-86
2023/06/15 04:43:02;;;;;;;14.27;11.50;;;15.30;99.90;;;;;;2096256;28;20389;-82
2023/06/15 04:44:03;;;;;;;12.25;10.98;;;15.30;99.90;;;;;;2096662;28;20026;-80
2023/06/15 04:45:05;;;;;;;12.20;10.90;;;15.30;99.90;;;;;;2089156;28;20913;-82
2023/06/15 04:46:06;;;;;;;13.23;10.73;;;15.30;99.90;;;;;;2097198;28;20016;-82
2023/06/15 04:47:07;;;;;;;14.20;11.07;;;15.30;99.90;;;;;;2097726;28;20537;-81
2023/06/15 04:48:07;;;;;;;12.57;10.70;;;15.30;99.90;;;;;;2089031;28;20029;-82
2023/06/15 04:49:08;;;;;;;13.45;10.88;;;15.40;99.90;;;;;;2090958;28;20033;-81
2023/06/15 04:50:13;;;;;;;13.77;10.30;;;15.40;99.90;;;;;;2094357;28;20031;-81
2023/06/15 04:51:15;;;;;;;13.95;10.60;;;15.40;99.90;;;;;;2100388;28;20356;-82
2023/06/15 04:52:16;;;;;;;13.60;10.25;;;15.40;99.90;;;;;;2101031;28;20023;-82
2023/06/15 04:53:18;;;;;;;13.10;10.50;;;15.40;99.90;;;;;;2093682;28;20020;-80
2023/06/15 04:54:18;;;;;;;13.60;11.00;;;15.40;99.90;;;;;;2094071;28;20019;-81
2023/06/15 04:55:20;;;;;;;12.65;11.15;;;15.50;99.90;;;;;;2081700;28;20554;-81
2023/06/15 04:56:22;;;;;;;15.82;11.90;;;15.50;99.90;;;;;;2086050;28;20061;-81
2023/06/15 04:57:23;;;;;;;14.82;11.07;;;15.50;99.90;;;;;;2098498;28;20523;-81
2023/06/15 04:58:24;;;;;;;12.73;11.23;;;15.50;99.90;;;;;;2101047;28;20051;-82
2023/06/15 04:59:25;;;;;;;15.55;12.40;;;15.50;99.90;;;;;;2099997;28;20032;-82
2023/06/15 05:00:26;;;;;;;16.45;11.85;;;15.50;99.90;;;;;;2076899;28;20027;-82
2023/06/15 05:01:32;;;;;;;16.40;11.85;;;15.50;99.90;;;;;;2084912;28;20594;-82
2023/06/15 05:02:33;;;;;;;16.77;11.60;;;15.40;99.90;;;;;;2093498;28;20098;-81
2023/06/15 05:03:34;;;;;;;15.20;11.73;;;15.40;99.90;;;;;;2100018;28;20184;-83
2023/06/15 05:04:35;;;;;;;12.80;11.20;;;15.40;99.90;;;;;;2092463;28;20055;-82
2023/06/15 05:05:35;;;;;;;13.27;10.57;;;15.40;99.90;;;;;;2090740;28;20651;-83
2023/06/15 05:06:36;;;;;;;13.45;11.30;;;15.50;99.90;;;;;;2089754;28;20028;-82
2023/06/15 05:07:36;;;;;;;13.40;11.00;;;15.50;99.90;;;;;;2090490;28;20543;-76
2023/06/15 05:08:37;;;;;;;13.30;11.27;;;15.50;99.90;;;;;;2096645;28;20384;-76
2023/06/15 05:09:39;;;;;;;13.88;11.07;;;15.50;99.90;;;;;;2093576;28;20036;-77
2023/06/15 05:10:44;;;;;;;13.15;11.32;;;15.60;99.90;;;;;;2085651;28;20040;-81
2023/06/15 05:11:45;;;;;;;15.05;10.90;;;15.60;99.90;;;;;;2101880;28;20308;-80
2023/06/15 05:12:46;;;;;;;14.23;11.30;;;15.60;99.90;;;;;;2104084;28;20031;-80
2023/06/15 05:13:47;;;;;;;14.63;11.20;;;15.60;99.90;;;;;;2100919;28;20540;-78
2023/06/15 05:14:48;;;;;;;14.88;11.20;;;15.60;99.90;;;;;;2098525;28;20120;-78
2023/06/15 05:15:50;;;;;;;16.55;12.23;;;15.70;99.90;;;;;;2095653;28;21258;-79